createdAt,value
2023-05-21T00:00:59.421Z,11.7099
2023-05-21T00:02:01.917Z,11.6267
2023-05-21T00:03:04.229Z,11.6175
2023-05-21T00:04:05.619Z,11.5509
2023-05-21T00:05:07.439Z,11.4510
2023-05-21T00:06:09.955Z,11.4805
2023-05-21T00:07:11.607Z,11.5444
2023-05-21T00:08:12.652Z,11.5047
2023-05-21T00:09:14.287Z,11.5180
2023-05-21T00:10:16.082Z,11.5310
2023-05-21T00:11:16.977Z,11.5357
2023-05-21T00:12:18.145Z,11.4476
2023-05-21T00:13:20.105Z,11.5389
2023-05-21T00:14:21.445Z,11.6034
2023-05-21T00:15:22.048Z,11.6042
2023-05-21T00:16:23.129Z,11.6635
2023-05-21T00:17:24.377Z,11.6512
2023-05-21T00:19:25.399Z,11.9067
2023-05-21T00:20:26.930Z,11.9632
2023-05-21T00:21:28.873Z,12.0692
2023-05-21T00:23:30.980Z,11.9926
2023-05-21T00:24:33.206Z,11.9193
2023-05-21T00:25:34.461Z,11.8309
2023-05-21T00:26:35.573Z,11.7305
2023-05-21T00:28:39.440Z,11.5987
2023-05-21T00:31:40.290Z,11.9434
2023-05-21T00:32:41.291Z,11.7773
2023-05-21T00:33:43.972Z,11.7404
2023-05-21T00:34:44.143Z,11.7580
2023-05-21T00:35:45.897Z,11.7274
2023-05-21T00:36:47.090Z,11.9886
2023-05-21T00:37:48.274Z,12.0983
2023-05-21T00:38:51.017Z,12.1328
2023-05-21T00:39:51.919Z,12.1730
2023-05-21T00:40:52.943Z,12.1369
2023-05-21T00:41:54.764Z,11.9425
2023-05-21T00:42:56.114Z,11.9218
2023-05-21T00:43:58.210Z,11.8201
2023-05-21T00:44:59.841Z,11.7032
2023-05-21T00:46:00.743Z,11.6400
2023-05-21T00:47:02.529Z,11.6273
2023-05-21T00:48:03.853Z,11.7313
2023-05-21T00:49:05.032Z,11.7740
2023-05-21T00:50:06.965Z,11.7590
2023-05-21T00:51:09.430Z,11.8699
2023-05-21T00:52:10.460Z,11.8965
2023-05-21T00:53:11.505Z,11.8148
2023-05-21T00:54:13.298Z,11.9336
2023-05-21T00:55:15.251Z,11.9691
2023-05-21T00:56:16.292Z,12.0047
2023-05-21T00:57:16.924Z,11.8383
2023-05-21T00:58:19.154Z,11.7498
2023-05-21T00:59:20.367Z,11.8043
2023-05-21T01:00:21.697Z,11.8273
2023-05-21T01:01:23.832Z,11.9347
2023-05-21T01:02:25.744Z,11.9998
2023-05-21T01:03:27.292Z,12.0529
2023-05-21T01:04:29.204Z,12.1431
2023-05-21T01:05:30.847Z,12.1485
2023-05-21T01:06:32.522Z,12.1473
2023-05-21T01:07:33.512Z,12.1238
2023-05-21T01:08:35.009Z,12.1375
2023-05-21T01:09:37.425Z,12.1507
2023-05-21T01:18:46.235Z,12.0204
2023-05-21T01:19:46.611Z,12.0314
2023-05-21T01:23:48.022Z,12.0303
2023-05-21T01:24:49.630Z,11.9993
2023-05-21T01:28:52.778Z,12.0398
2023-05-21T01:29:53.668Z,11.9939
2023-05-21T01:30:55.868Z,11.9523
2023-05-21T01:31:58.077Z,12.0164
2023-05-21T01:32:59.345Z,11.9933
2023-05-21T01:34:01.706Z,11.9967
2023-05-21T01:37:05.221Z,11.9857
2023-05-21T01:38:07.109Z,12.0153
2023-05-21T01:40:08.093Z,11.9433
2023-05-21T01:41:09.994Z,11.9123
2023-05-21T01:42:10.877Z,11.9447
2023-05-21T01:43:11.984Z,11.8979
2023-05-21T01:44:13.743Z,11.9242
2023-05-21T01:45:15.652Z,11.9700
2023-05-21T01:46:16.689Z,11.9386
2023-05-21T01:47:17.700Z,11.9785
2023-05-21T01:48:18.689Z,11.9584
2023-05-21T01:49:20.570Z,11.9048
2023-05-21T01:54:24.285Z,11.8802
2023-05-21T01:55:25.485Z,11.8925
2023-05-21T01:56:27.347Z,11.8532
2023-05-21T01:57:28.310Z,11.8459
2023-05-21T01:58:30.542Z,11.8316
2023-05-21T01:59:31.769Z,11.8041
2023-05-21T02:00:33.465Z,11.7615
2023-05-21T02:01:36.019Z,11.7921
2023-05-21T02:02:36.712Z,11.8124
2023-05-21T02:03:36.789Z,11.8084
2023-05-21T02:04:39.297Z,11.7919
2023-05-21T02:05:39.585Z,11.7250
2023-05-21T02:06:40.592Z,11.7183
2023-05-21T02:07:42.501Z,11.7731
2023-05-21T02:08:43.301Z,11.7744
2023-05-21T02:15:51.270Z,11.7517
2023-05-21T02:16:53.394Z,11.7663
2023-05-21T02:17:55.966Z,11.7034
2023-05-21T02:20:58.235Z,11.6072
2023-05-21T02:21:59.405Z,11.6664
2023-05-21T02:23:00.334Z,11.6108
2023-05-21T02:24:02.406Z,11.6178
2023-05-21T02:25:06.979Z,11.7675
2023-05-21T02:27:04.672Z,11.8858
2023-05-21T02:28:06.845Z,11.9374
2023-05-21T02:29:08.143Z,11.8628
2023-05-21T02:31:11.473Z,11.6767
2023-05-21T02:34:14.275Z,11.7043
2023-05-21T02:35:15.462Z,11.6886
2023-05-21T02:36:16.436Z,11.8090
2023-05-21T02:37:18.886Z,11.8551
2023-05-21T02:38:20.496Z,11.7389
2023-05-21T02:39:21.982Z,11.7726
2023-05-21T02:40:22.356Z,11.7323
2023-05-21T02:41:23.480Z,11.7942
2023-05-21T02:42:25.124Z,11.7146
2023-05-21T02:43:26.112Z,11.6945
2023-05-21T02:44:28.288Z,11.7089
2023-05-21T02:45:29.597Z,11.7096
2023-05-21T02:46:30.745Z,11.5287
2023-05-21T02:47:32.678Z,11.4933
2023-05-21T02:48:33.519Z,11.6500
2023-05-21T02:49:35.538Z,11.7394
2023-05-21T02:57:43.679Z,11.4786
2023-05-21T02:58:45.712Z,11.3546
2023-05-21T02:59:47.287Z,11.3079
2023-05-21T03:00:48.357Z,11.2284
2023-05-21T03:01:50.760Z,11.2250
2023-05-21T03:02:50.943Z,11.4893
2023-05-21T03:03:52.610Z,11.5938
2023-05-21T03:04:54.350Z,11.6395
2023-05-21T03:05:56.187Z,11.5597
2023-05-21T03:06:56.931Z,11.4299
2023-05-21T03:07:58.352Z,11.4996
2023-05-21T03:09:00.577Z,11.5581
2023-05-21T03:10:01.606Z,11.5757
2023-05-21T03:11:03.177Z,11.5246
2023-05-21T03:12:04.711Z,11.4688
2023-05-21T03:13:08.195Z,11.5324
2023-05-21T03:14:07.856Z,11.5148
2023-05-21T03:17:40.370Z,11.5540
2023-05-21T03:18:40.549Z,11.4812
2023-05-21T03:19:41.828Z,11.5181
2023-05-21T03:20:42.794Z,11.3949
2023-05-21T03:21:44.053Z,11.2643
2023-05-21T03:23:46.688Z,10.8342
2023-05-21T03:24:48.001Z,10.6994
2023-05-21T03:25:49.525Z,10.7161
2023-05-21T03:26:50.586Z,10.9658
2023-05-21T03:27:51.549Z,11.0676
2023-05-21T03:28:53.070Z,10.8391
2023-05-21T03:29:55.020Z,10.7472
2023-05-21T03:30:56.447Z,10.8213
2023-05-21T03:31:57.735Z,10.9244
2023-05-21T03:32:59.202Z,10.6216
2023-05-21T03:34:00.671Z,10.6343
2023-05-21T03:35:01.869Z,10.4960
2023-05-21T03:36:03.487Z,10.3705
2023-05-21T03:37:04.498Z,10.3508
2023-05-21T03:38:05.650Z,10.4532
2023-05-21T03:39:06.953Z,10.2168
2023-05-21T03:40:08.336Z,10.3623
2023-05-21T03:41:10.435Z,10.4962
2023-05-21T03:42:10.474Z,10.8155
2023-05-21T03:43:11.554Z,10.8950
2023-05-21T03:44:12.222Z,10.9502
2023-05-21T03:45:12.922Z,10.9218
2023-05-21T03:46:13.866Z,10.9414
2023-05-21T03:47:14.110Z,10.8844
2023-05-21T03:48:15.315Z,10.7609
2023-05-21T03:49:16.955Z,10.7690
2023-05-21T03:50:17.964Z,10.8557
2023-05-21T03:51:18.511Z,10.9144
2023-05-21T03:52:20.766Z,10.8895
2023-05-21T03:53:21.391Z,11.0031
2023-05-21T03:54:22.595Z,10.9485
2023-05-21T03:55:23.741Z,11.2326
2023-05-21T03:56:25.184Z,11.0859
2023-05-21T03:57:26.264Z,10.9305
2023-05-21T03:58:27.878Z,10.6701
2023-05-21T03:59:30.194Z,9.9805
2023-05-21T04:01:30.469Z,10.6582
2023-05-21T04:02:32.028Z,10.9875
2023-05-21T04:10:41.227Z,11.1716
2023-05-21T04:11:42.133Z,11.0680
2023-05-21T04:12:43.700Z,11.2457
2023-05-21T04:13:45.412Z,11.3039
2023-05-21T04:15:47.113Z,11.3840
2023-05-21T04:16:49.725Z,11.3406
2023-05-21T04:22:56.654Z,11.4436
2023-05-21T04:23:56.730Z,11.4323
2023-05-21T04:25:57.010Z,11.4406
2023-05-21T04:26:58.506Z,11.4099
2023-05-21T04:28:00.055Z,11.4119
2023-05-21T04:29:02.475Z,11.4746
2023-05-21T04:30:04.025Z,11.4415
2023-05-21T04:31:06.209Z,11.4401
2023-05-21T04:32:06.241Z,11.4083
2023-05-21T04:33:08.472Z,11.4170
2023-05-21T04:34:10.422Z,11.5266
2023-05-21T04:36:10.621Z,11.5481
2023-05-21T04:37:12.337Z,11.6405
2023-05-21T04:38:14.598Z,11.6745
2023-05-21T04:39:15.247Z,11.6993
2023-05-21T04:40:17.079Z,11.7478
2023-05-21T04:41:19.118Z,11.7460
2023-05-21T04:42:20.332Z,11.5464
2023-05-21T04:43:23.114Z,11.4813
2023-05-21T04:44:25.268Z,11.6026
2023-05-21T04:50:29.835Z,11.9347
2023-05-21T04:51:31.179Z,11.9489
2023-05-21T04:52:32.958Z,11.9677
2023-05-21T04:53:34.955Z,11.9566
2023-05-21T04:54:36.156Z,11.9490
2023-05-21T04:55:38.429Z,11.9444
2023-05-21T04:58:40.093Z,12.0359
2023-05-21T04:59:40.980Z,12.0862
2023-05-21T05:00:41.853Z,12.1588
2023-05-21T05:01:42.915Z,12.1337
2023-05-21T05:02:44.806Z,12.1471
2023-05-21T05:03:46.462Z,12.2209
2023-05-21T05:04:48.095Z,12.2958
2023-05-21T05:05:49.253Z,12.3366
2023-05-21T05:06:49.486Z,12.2408
2023-05-21T05:07:49.492Z,12.3046
2023-05-21T05:08:51.020Z,12.2680
2023-05-21T05:09:53.252Z,12.1592
2023-05-21T05:10:54.247Z,12.1369
2023-05-21T05:11:56.750Z,12.1677
2023-05-21T05:12:58.922Z,12.2334
2023-05-21T05:14:00.222Z,12.2991
2023-05-21T05:15:02.659Z,12.2036
2023-05-21T05:25:15.206Z,12.1507
2023-05-21T05:26:16.692Z,12.1858
2023-05-21T05:27:19.070Z,12.1675
2023-05-21T05:29:20.718Z,12.1961
2023-05-21T05:30:21.670Z,12.1518
2023-05-21T05:31:22.735Z,12.2668
2023-05-21T05:32:24.474Z,12.2485
2023-05-21T05:33:26.096Z,12.2808
2023-05-21T05:34:28.112Z,12.3039
2023-05-21T05:35:29.080Z,12.2962
2023-05-21T05:36:29.546Z,12.4080
2023-05-21T05:37:31.940Z,12.5129
2023-05-21T05:38:32.927Z,12.5758
2023-05-21T05:39:33.925Z,12.6576
2023-05-21T05:40:35.657Z,12.5342
2023-05-21T05:41:36.803Z,12.5271
2023-05-21T05:42:37.718Z,12.4646
2023-05-21T05:43:38.699Z,12.4813
2023-05-21T05:44:40.774Z,12.4611
2023-05-21T05:49:45.000Z,12.6886
2023-05-21T05:50:45.958Z,12.7837
2023-05-21T05:51:46.747Z,12.7640
2023-05-21T05:52:48.290Z,12.7553
2023-05-21T05:54:50.087Z,12.9595
2023-05-21T05:55:51.604Z,12.9689
2023-05-21T05:56:53.209Z,12.8013
2023-05-21T05:57:54.142Z,12.7923
2023-05-21T05:58:55.043Z,12.7515
2023-05-21T05:59:56.666Z,12.8483
2023-05-21T06:00:57.584Z,12.9297
2023-05-21T06:01:58.103Z,12.9489
2023-05-21T06:02:59.161Z,12.9192
2023-05-21T06:04:00.413Z,13.0137
2023-05-21T06:05:01.959Z,13.2031
2023-05-21T06:06:04.004Z,13.1194
2023-05-21T06:14:10.232Z,13.4370
2023-05-21T06:15:15.931Z,13.5405
2023-05-21T06:18:13.771Z,13.2573
2023-05-21T06:19:14.924Z,13.3964
2023-05-21T06:20:17.152Z,13.4651
2023-05-21T06:21:17.277Z,13.4498
2023-05-21T06:22:18.398Z,13.6687
2023-05-21T06:23:19.812Z,13.7086
2023-05-21T06:24:21.056Z,13.7292
2023-05-21T06:25:21.608Z,13.5676
2023-05-21T06:26:23.056Z,13.8624
2023-05-21T06:27:25.918Z,13.9815
2023-05-21T06:28:27.225Z,14.2154
2023-05-21T06:29:28.605Z,14.2763
2023-05-21T06:30:30.716Z,14.3758
2023-05-21T06:31:32.470Z,14.6297
2023-05-21T06:32:35.253Z,14.8572
2023-05-21T06:41:44.128Z,14.8734
2023-05-21T06:42:45.468Z,14.7035
2023-05-21T06:43:47.034Z,14.5676
2023-05-21T06:44:49.172Z,14.2765
2023-05-21T06:45:49.219Z,14.7646
2023-05-21T06:47:51.475Z,14.9208
2023-05-21T06:48:51.891Z,15.1436
2023-05-21T06:50:52.485Z,15.4272
2023-05-21T06:51:55.384Z,15.1720
2023-05-21T06:53:57.657Z,14.9469
2023-05-21T06:54:59.866Z,14.8901
2023-05-21T06:56:00.476Z,15.2130
2023-05-21T06:57:00.907Z,14.9511
2023-05-21T06:58:02.746Z,15.0327
2023-05-21T06:59:05.016Z,15.1841
2023-05-21T07:00:05.037Z,15.2835
2023-05-21T07:02:08.145Z,15.5352
2023-05-21T07:03:09.903Z,15.3120
2023-05-21T07:04:10.664Z,15.2437
2023-05-21T07:05:12.740Z,15.3835
2023-05-21T07:06:12.878Z,15.1463
2023-05-21T07:07:14.619Z,15.0158
2023-05-21T07:08:17.100Z,14.9077
2023-05-21T07:09:17.882Z,15.1234
2023-05-21T07:12:22.100Z,15.0354
2023-05-21T07:13:22.654Z,15.0948
2023-05-21T07:19:31.088Z,16.7063
2023-05-21T07:25:38.469Z,15.7977
2023-05-21T07:26:39.685Z,16.0154
2023-05-21T07:27:40.467Z,16.2682
2023-05-21T07:28:41.253Z,15.8845
2023-05-21T07:29:44.172Z,15.7105
2023-05-21T07:30:44.430Z,15.6810
2023-05-21T07:31:45.676Z,15.6447
2023-05-21T07:32:46.999Z,16.2418
2023-05-21T07:33:48.759Z,16.3719
2023-05-21T07:34:49.646Z,16.5352
2023-05-21T07:36:51.030Z,16.7478
2023-05-21T07:39:52.865Z,16.7136
2023-05-21T07:40:54.526Z,16.5658
2023-05-21T07:41:56.604Z,17.0910
2023-05-21T07:47:02.446Z,16.0142
2023-05-21T07:48:04.637Z,17.3580
2023-05-21T07:50:06.418Z,17.7556
2023-05-21T07:51:06.954Z,17.3544
2023-05-21T07:53:08.782Z,17.2436
2023-05-21T07:54:09.474Z,17.5716
2023-05-21T07:56:09.804Z,17.5469
2023-05-21T07:57:10.557Z,16.7081
2023-05-21T07:58:11.308Z,17.2500
2023-05-21T07:59:13.896Z,17.1178
2023-05-21T08:00:13.818Z,17.2663
2023-05-21T08:05:17.698Z,17.0808
2023-05-21T08:06:17.780Z,17.3162
2023-05-21T08:07:19.911Z,17.3096
2023-05-21T08:08:20.600Z,16.9454
2023-05-21T08:09:20.699Z,17.1949
2023-05-21T08:10:20.877Z,16.7098
2023-05-21T08:11:22.625Z,16.9377
2023-05-21T08:12:23.383Z,17.7759
2023-05-21T08:14:24.431Z,17.9111
2023-05-21T08:15:25.467Z,18.1856
2023-05-21T08:16:26.680Z,19.0187
2023-05-21T08:17:29.315Z,18.5486
2023-05-21T08:18:29.719Z,18.3692
2023-05-21T08:19:30.599Z,19.0817
2023-05-21T08:20:33.184Z,19.9265
2023-05-21T08:21:33.581Z,19.9460
2023-05-21T08:22:34.161Z,19.2052
2023-05-21T08:23:35.153Z,18.1087
2023-05-21T08:24:35.366Z,18.1179
2023-05-21T08:25:36.586Z,18.3211
2023-05-21T08:26:37.421Z,18.7900
2023-05-21T08:28:39.313Z,19.1022
2023-05-21T08:29:41.453Z,18.5522
2023-05-21T08:30:42.041Z,19.0898
2023-05-21T08:32:45.228Z,20.1849
2023-05-21T08:33:46.316Z,19.5303
2023-05-21T08:41:50.154Z,21.5038
2023-05-21T08:42:51.935Z,19.8477
2023-05-21T08:43:54.901Z,19.5043
2023-05-21T08:44:53.684Z,20.4411
2023-05-21T08:45:56.029Z,20.0519
2023-05-21T08:46:56.511Z,20.5985
2023-05-21T08:47:59.189Z,21.4646
2023-05-21T08:49:00.157Z,22.3109
2023-05-21T08:50:01.970Z,20.1299
2023-05-21T08:51:02.785Z,20.3946
2023-05-21T08:52:03.807Z,20.3049
2023-05-21T08:53:12.721Z,20.0404
2023-05-21T08:55:07.229Z,20.2370
2023-05-21T09:01:19.800Z,19.1107
2023-05-21T09:02:19.671Z,19.4153
2023-05-21T09:03:21.915Z,20.6990
2023-05-21T09:04:23.513Z,20.4379
2023-05-21T09:05:23.749Z,20.0352
2023-05-21T09:06:25.997Z,20.2787
2023-05-21T09:07:26.982Z,21.5351
2023-05-21T09:08:28.198Z,21.2366
2023-05-21T09:09:29.548Z,22.4036
2023-05-21T09:10:30.983Z,23.2010
2023-05-21T09:11:31.477Z,21.6468
2023-05-21T09:12:33.610Z,21.6788
2023-05-21T09:13:39.266Z,22.6642
2023-05-21T09:21:42.911Z,22.4666
2023-05-21T09:22:44.157Z,22.5087
2023-05-21T09:24:46.076Z,22.5960
2023-05-21T09:25:47.369Z,21.6987
2023-05-21T09:26:47.701Z,20.9632
2023-05-21T09:27:49.970Z,20.6016
2023-05-21T09:28:51.719Z,20.3500
2023-05-21T09:29:53.359Z,20.7099
2023-05-21T09:30:59.976Z,19.8179
2023-05-21T09:38:04.122Z,22.2001
2023-05-21T09:39:06.252Z,23.4558
2023-05-21T09:40:07.625Z,22.5634
2023-05-21T09:41:09.638Z,24.4153
2023-05-21T09:42:11.909Z,24.0597
2023-05-21T09:43:13.072Z,24.5478
2023-05-21T09:44:15.650Z,22.6057
2023-05-21T09:45:17.614Z,21.4198
2023-05-21T09:47:19.543Z,21.4760
2023-05-21T09:48:19.901Z,22.3237
2023-05-21T09:49:20.988Z,21.6439
2023-05-21T09:50:23.247Z,22.4789
2023-05-21T09:51:23.463Z,22.6278
2023-05-21T09:52:23.589Z,22.3136
2023-05-21T09:53:25.225Z,22.0981
2023-05-21T09:54:26.625Z,21.6776
2023-05-21T09:55:28.325Z,21.8107
2023-05-21T09:56:29.639Z,22.5611
2023-05-21T09:57:29.670Z,22.5351
2023-05-21T09:58:31.549Z,22.2906
2023-05-21T09:59:33.472Z,21.6588
2023-05-21T10:00:34.155Z,21.7617
2023-05-21T10:01:35.647Z,21.9082
2023-05-21T10:02:38.153Z,22.3385
2023-05-21T10:03:39.989Z,22.9241
2023-05-21T10:04:41.321Z,22.4353
2023-05-21T10:05:42.406Z,23.3738
2023-05-21T10:06:44.324Z,23.3376
2023-05-21T10:07:46.403Z,24.1925
2023-05-21T10:10:49.211Z,23.8214
2023-05-21T10:11:49.474Z,23.8751
2023-05-21T10:13:50.986Z,22.8414
2023-05-21T10:15:51.888Z,22.8775
2023-05-21T10:16:53.942Z,22.6484
2023-05-21T10:17:55.533Z,22.7617
2023-05-21T10:18:56.707Z,22.5652
2023-05-21T10:19:58.133Z,22.9400
2023-05-21T10:20:58.385Z,21.3408
2023-05-21T10:21:59.339Z,21.2834
2023-05-21T10:23:00.606Z,21.8195
2023-05-21T10:24:01.194Z,23.4263
2023-05-21T10:25:01.782Z,23.5860
2023-05-21T10:26:04.019Z,23.1989
2023-05-21T10:27:04.097Z,23.0630
2023-05-21T10:28:07.166Z,21.7901
2023-05-21T10:30:11.827Z,22.0783
2023-05-21T10:35:12.376Z,21.7743
2023-05-21T10:36:13.922Z,22.3598
2023-05-21T10:38:15.252Z,23.0612
2023-05-21T10:41:29.918Z,23.8175
2023-05-21T10:49:33.106Z,24.0012
2023-05-21T10:50:33.712Z,23.7524
2023-05-21T10:51:35.075Z,24.7497
2023-05-21T10:52:37.245Z,25.0357
2023-05-21T10:53:37.935Z,24.2174
2023-05-21T10:54:38.541Z,24.6804
2023-05-21T10:55:38.958Z,24.7447
2023-05-21T10:56:39.644Z,23.5590
2023-05-21T10:57:41.911Z,22.5865
2023-05-21T11:00:43.730Z,22.1460
2023-05-21T11:01:45.858Z,22.0649
2023-05-21T11:02:46.759Z,21.3974
2023-05-21T11:04:48.082Z,23.2559
2023-05-21T11:05:48.920Z,23.7670
2023-05-21T11:06:49.762Z,23.0029
2023-05-21T11:07:51.207Z,23.5740
2023-05-21T11:08:53.788Z,23.3929
2023-05-21T11:09:53.015Z,24.0749
2023-05-21T11:10:53.262Z,24.6999
2023-05-21T11:16:59.715Z,22.5611
2023-05-21T11:18:01.775Z,23.3130
2023-05-21T11:19:03.855Z,22.7607
2023-05-21T11:21:04.567Z,22.6439
2023-05-21T11:22:07.235Z,23.1969
2023-05-21T11:23:07.745Z,24.0102
2023-05-21T11:24:08.040Z,23.0416
2023-05-21T11:25:10.003Z,22.9443
2023-05-21T11:26:12.105Z,22.0981
2023-05-21T11:28:14.107Z,23.5545
2023-05-21T11:29:15.031Z,22.7038
2023-05-21T11:30:16.170Z,22.9686
2023-05-21T11:31:17.829Z,22.9889
2023-05-21T11:32:19.085Z,23.0964
2023-05-21T11:33:20.299Z,22.3715
2023-05-21T11:34:22.747Z,23.3902
2023-05-21T11:35:22.835Z,24.4589
2023-05-21T11:36:24.071Z,24.7139
2023-05-21T11:37:27.543Z,23.8556
2023-05-21T11:39:27.681Z,24.2754
2023-05-21T11:47:36.728Z,23.9650
2023-05-21T11:49:37.223Z,24.3307
2023-05-21T11:50:38.304Z,24.2533
2023-05-21T11:51:38.369Z,24.4503
2023-05-21T11:52:39.797Z,24.6603
2023-05-21T11:53:44.028Z,24.3874
2023-05-21T11:54:41.995Z,24.2426
2023-05-21T11:56:45.846Z,25.1975
2023-05-21T11:57:47.293Z,24.5690
2023-05-21T11:58:48.111Z,23.5084
2023-05-21T11:59:49.985Z,25.8047
2023-05-21T12:00:52.635Z,24.4585
2023-05-21T12:01:54.134Z,24.4936
2023-05-21T12:02:54.895Z,25.7427
2023-05-21T12:03:56.858Z,25.2251
2023-05-21T12:04:59.150Z,24.2897
2023-05-21T12:06:00.456Z,25.0812
2023-05-21T12:07:01.738Z,25.8659
2023-05-21T12:08:02.126Z,25.7327
2023-05-21T12:09:03.186Z,25.1814
2023-05-21T12:10:04.171Z,24.6221
2023-05-21T12:11:04.858Z,24.9326
2023-05-21T12:15:06.501Z,24.0245
2023-05-21T12:16:07.323Z,25.2727
2023-05-21T12:18:07.451Z,24.9987
2023-05-21T12:19:07.633Z,24.4056
2023-05-21T12:20:08.326Z,24.6424
2023-05-21T12:22:11.408Z,23.9196
2023-05-21T12:23:13.438Z,24.3660
2023-05-21T12:24:14.152Z,24.1464
2023-05-21T12:25:15.257Z,23.7630
2023-05-21T12:26:18.178Z,23.4589
2023-05-21T12:27:19.986Z,25.1631
2023-05-21T12:33:25.323Z,25.1241
2023-05-21T12:34:28.036Z,24.9957
2023-05-21T12:37:31.006Z,24.4683
2023-05-21T12:39:31.442Z,24.2481
2023-05-21T12:40:32.965Z,23.9180
2023-05-21T12:41:34.338Z,24.1746
2023-05-21T12:42:34.826Z,24.2071
2023-05-21T12:43:36.268Z,23.5070
2023-05-21T12:44:38.672Z,24.1836
2023-05-21T12:45:41.312Z,24.8089
2023-05-21T12:46:41.456Z,23.5783
2023-05-21T12:53:50.399Z,24.6784
2023-05-21T12:54:51.718Z,23.9906
2023-05-21T12:55:53.638Z,23.9516
2023-05-21T12:56:56.234Z,24.8024
2023-05-21T12:57:56.972Z,24.1928
2023-05-21T12:59:57.670Z,23.1047
2023-05-21T13:00:59.434Z,23.3440
2023-05-21T13:01:59.631Z,24.6803
2023-05-21T13:03:59.608Z,24.9181
2023-05-21T13:04:59.908Z,24.2233
2023-05-21T13:06:01.987Z,23.7155
2023-05-21T13:07:04.824Z,24.2874
2023-05-21T13:08:04.769Z,25.3287
2023-05-21T13:09:06.382Z,25.2112
2023-05-21T13:10:07.946Z,23.6229
2023-05-21T13:11:10.676Z,23.9045
2023-05-21T13:12:12.726Z,23.6171
2023-05-21T13:14:14.275Z,24.5193
2023-05-21T13:20:19.178Z,24.2133
2023-05-21T13:21:21.089Z,24.4729
2023-05-21T13:22:22.024Z,23.6320
2023-05-21T13:23:24.881Z,23.4330
2023-05-21T13:28:28.155Z,24.0298
2023-05-21T13:29:30.051Z,23.1136
2023-05-21T13:30:30.944Z,23.5066
2023-05-21T13:31:32.742Z,24.0793
2023-05-21T13:32:33.204Z,24.4659
2023-05-21T13:33:35.151Z,23.4072
2023-05-21T13:34:36.150Z,23.3870
2023-05-21T13:35:36.214Z,24.3836
2023-05-21T13:36:37.081Z,24.1743
2023-05-21T13:37:37.064Z,24.5835
2023-05-21T13:38:38.549Z,25.3084
2023-05-21T13:39:39.766Z,25.9713
2023-05-21T13:40:40.365Z,26.2996
2023-05-21T13:41:41.054Z,25.0814
2023-05-21T13:42:41.143Z,25.5726
2023-05-21T13:43:43.686Z,24.2811
2023-05-21T13:44:44.478Z,24.7483
2023-05-21T13:51:51.492Z,24.0568
2023-05-21T13:52:53.676Z,23.7892
2023-05-21T13:53:55.602Z,23.8951
2023-05-21T13:54:55.013Z,23.7040
2023-05-21T13:56:55.412Z,23.7936
2023-05-21T13:57:56.058Z,23.2699
2023-05-21T13:58:56.588Z,23.3465
2023-05-21T13:59:57.246Z,23.6696
2023-05-21T14:01:59.854Z,24.5086
2023-05-21T14:03:01.594Z,24.4785
2023-05-21T14:04:02.243Z,23.8871
2023-05-21T14:05:05.218Z,23.6305
2023-05-21T14:06:06.327Z,24.1078
2023-05-21T14:07:07.600Z,24.0908
2023-05-21T14:09:10.876Z,25.5392
2023-05-21T14:10:12.544Z,25.3140
2023-05-21T14:11:12.852Z,24.8829
2023-05-21T14:12:14.869Z,24.4614
2023-05-21T14:13:19.970Z,24.9743
2023-05-21T14:14:17.532Z,25.7623
2023-05-21T14:15:18.379Z,24.2539
2023-05-21T14:16:20.289Z,24.6277
2023-05-21T14:17:22.433Z,25.5782
2023-05-21T14:18:23.842Z,25.9495
2023-05-21T14:19:24.873Z,24.7328
2023-05-21T14:20:24.889Z,25.1344
2023-05-21T14:21:26.389Z,25.2126
2023-05-21T14:22:26.641Z,25.5019
2023-05-21T14:24:34.361Z,24.9664
2023-05-21T14:29:33.162Z,25.0101
2023-05-21T14:30:33.921Z,25.5113
2023-05-21T14:31:36.092Z,24.7193
2023-05-21T14:32:36.693Z,24.3491
2023-05-21T14:33:37.706Z,24.6020
2023-05-21T14:36:41.983Z,25.3992
2023-05-21T14:37:42.604Z,25.3062
2023-05-21T14:38:43.844Z,24.7732
2023-05-21T14:40:44.101Z,25.1892
2023-05-21T14:41:46.106Z,24.5785
2023-05-21T14:42:48.212Z,25.5766
2023-05-21T14:43:48.786Z,25.9618
2023-05-21T14:44:49.304Z,25.4742
2023-05-21T14:45:50.683Z,25.6946
2023-05-21T14:46:50.703Z,25.0340
2023-05-21T14:47:52.088Z,24.5338
2023-05-21T14:48:53.881Z,25.1329
2023-05-21T14:49:54.844Z,24.3371
2023-05-21T14:50:56.292Z,25.2862
2023-05-21T14:51:58.223Z,24.1173
2023-05-21T14:52:58.546Z,23.8484
2023-05-21T14:53:59.084Z,23.3191
2023-05-21T14:55:01.129Z,23.3357
2023-05-21T14:56:01.144Z,22.9845
2023-05-21T14:57:01.416Z,23.1478
2023-05-21T14:58:03.507Z,22.8921
2023-05-21T14:59:04.958Z,23.2600
2023-05-21T15:00:05.535Z,23.3575
2023-05-21T15:01:06.407Z,23.5022
2023-05-21T15:02:07.193Z,22.9331
2023-05-21T15:03:07.728Z,22.4346
2023-05-21T15:04:08.336Z,23.4778
2023-05-21T15:05:09.552Z,23.7801
2023-05-21T15:07:10.864Z,23.1577
2023-05-21T15:08:12.244Z,22.8963
2023-05-21T15:09:12.991Z,22.9881
2023-05-21T15:10:16.598Z,22.6599
2023-05-21T15:11:16.900Z,22.6364
2023-05-21T15:12:18.317Z,23.1136
2023-05-21T15:14:20.312Z,23.7247
2023-05-21T15:15:20.936Z,24.2011
2023-05-21T15:16:22.220Z,23.3851
2023-05-21T15:18:25.734Z,23.9933
2023-05-21T15:19:26.252Z,24.4836
2023-05-21T15:20:27.090Z,24.9892
2023-05-21T15:21:29.107Z,24.9842
2023-05-21T15:22:30.497Z,25.9982
2023-05-21T15:24:32.649Z,26.4005
2023-05-21T15:25:33.867Z,25.5442
2023-05-21T15:26:34.694Z,25.5826
2023-05-21T15:27:35.573Z,26.5940
2023-05-21T15:28:37.500Z,26.4812
2023-05-21T15:29:38.171Z,27.4221
2023-05-21T15:30:38.886Z,27.2376
2023-05-21T15:31:39.429Z,27.2197
2023-05-21T15:33:40.622Z,26.5765
2023-05-21T15:34:40.662Z,28.1473
2023-05-21T15:35:43.661Z,25.4483
2023-05-21T15:37:44.808Z,26.2352
2023-05-21T15:38:45.262Z,25.9833
2023-05-21T15:40:47.909Z,26.8777
2023-05-21T15:41:49.017Z,27.0844
2023-05-21T15:42:49.641Z,28.1426
2023-05-21T15:43:51.318Z,28.0598
2023-05-21T15:44:52.238Z,27.4594
2023-05-21T15:45:53.266Z,26.6243
2023-05-21T15:46:53.084Z,25.5658
2023-05-21T15:47:54.240Z,25.8197
2023-05-21T15:48:55.948Z,26.5053
2023-05-21T15:49:58.132Z,27.0674
2023-05-21T15:50:58.632Z,25.6974
2023-05-21T15:51:59.981Z,27.1587
2023-05-21T15:53:01.720Z,27.9988
2023-05-21T15:57:34.196Z,25.5803
2023-05-21T15:58:39.025Z,25.1702
2023-05-21T16:07:44.528Z,28.4161
2023-05-21T16:08:45.977Z,26.2457
2023-05-21T16:09:48.290Z,26.1984
2023-05-21T16:10:50.265Z,26.2494
2023-05-21T16:11:52.180Z,25.6354
2023-05-21T16:12:52.363Z,25.8523
2023-05-21T16:13:54.178Z,25.5394
2023-05-21T16:18:30.409Z,25.4591
2023-05-21T16:19:32.836Z,25.1923
2023-05-21T16:21:34.212Z,25.9388
2023-05-21T16:22:34.794Z,25.6896
2023-05-21T16:23:36.510Z,25.7151
2023-05-21T16:24:37.947Z,25.2643
2023-05-21T16:25:39.996Z,24.6811
2023-05-21T16:26:41.814Z,24.9142
2023-05-21T16:28:44.506Z,23.7760
2023-05-21T16:29:46.394Z,23.5502
2023-05-21T16:30:45.976Z,23.8329
2023-05-21T16:31:47.549Z,24.1338
2023-05-21T16:32:48.790Z,24.1550
2023-05-21T16:33:49.688Z,24.3735
2023-05-21T16:34:51.241Z,23.7770
2023-05-21T16:35:54.156Z,23.9058
2023-05-21T16:36:57.166Z,24.1221
2023-05-21T16:38:58.103Z,24.9204
2023-05-21T16:39:59.634Z,25.0438
2023-05-21T16:40:59.644Z,24.9957
2023-05-21T16:42:02.393Z,24.5206
2023-05-21T16:43:04.338Z,24.2603
2023-05-21T16:52:44.730Z,24.6709
2023-05-21T16:53:44.938Z,25.4109
2023-05-21T16:55:48.190Z,25.4062
2023-05-21T16:56:48.555Z,26.1453
2023-05-21T16:58:50.476Z,25.0280
2023-05-21T17:00:51.370Z,23.9806
2023-05-21T17:01:52.005Z,23.8347
2023-05-21T17:03:53.140Z,23.7861
2023-05-21T17:04:52.999Z,23.7645
2023-05-21T17:05:54.769Z,24.1807
2023-05-21T17:06:57.010Z,23.9771
2023-05-21T17:14:06.492Z,22.5900
2023-05-21T17:15:06.942Z,22.2967
2023-05-21T17:16:07.059Z,22.3283
2023-05-21T17:17:09.139Z,21.8346
2023-05-21T17:18:10.979Z,21.8044
2023-05-21T17:19:12.157Z,21.5379
2023-05-21T17:20:13.398Z,21.8532
2023-05-21T17:21:15.180Z,22.1407